Forside
METAR-TAF:

METAR-TAF

Lufthavne :

Flughafen Kiel

Kiel, Tyskland

Breddekreds: 54-23N, længdekreds: 010-10E, højde: 31 m

Aktuelle vejr

Denne rapport blev lavet for 39 minutter siden, kl. 18:20 UTC
Vind 13 kt fra sydvest, varierende mellem sydsydvest og vest
Temperatur 2°C
Fugtighed 93%
Tryk 997 hPa
Sigt: 6000 m

METAR: EDHK 031820Z AUTO 23013KT 200V260 6000 // OVC006/// 02/01 Q0997

Tid: 19:59 (18:59 UTC)

Vejrudsigter

Denne rapport blev lavet for 4 timer og 59 minutter siden, kl. 14:00 UTC
Foreløbig gælder fra 03 på 15 UTC til 03 på 19 UTC
Vind 13 kt fra sydvest
Sigt: 8000 m
Brudte skyer i en højde af 1200 ft
Midlertidig
fra 03 på 15 UTC til 03 på 19 UTC
Vind 15 kt fra sydvest med vindstød på up til 30 kt
Sigt: 4500 m
Brudte skyer i en højde af 700 ft
regn, sne

TAF: EDHK 031400Z 0315/0319 22013KT 8000 BKN012 TEMPO 0315/0319 22015G30KT 4500 RASN BKN007

Vejrobservationer og prognoser fra mere end 4000 lufthavne (METAR og TAF).

De gule og røde prikker repræsenterer de meteorologiske stationer.

Flyt musen over at se navnet på stationen.

Så klik over at se vejr observationer og prognoser.

At skifte det kort: Klik på de grønne knapper med et sort kors for at zoome ind; på den grønne knap med en bindestreg for at zoome ud; eller på de grønne pile for tilstødende kort.


METAR-TAF: